createdAt,value
2022-10-08T00:04:06.692Z,2.20
2022-10-08T00:10:00.021Z,2.50
2022-10-08T00:15:53.860Z,3.10
2022-10-08T00:21:51.449Z,2.00
2022-10-08T00:27:44.680Z,2.63
2022-10-08T00:33:37.913Z,2.70
2022-10-08T00:39:32.152Z,3.13
2022-10-08T00:45:25.549Z,2.50
2022-10-08T00:51:19.463Z,2.30
2022-10-08T00:57:14.426Z,2.47
2022-10-08T01:03:07.827Z,2.67
2022-10-08T01:09:06.261Z,2.80
2022-10-08T01:15:04.020Z,2.40
2022-10-08T01:21:05.193Z,2.10
2022-10-08T01:27:03.288Z,2.67
2022-10-08T01:33:02.057Z,3.00
2022-10-08T01:38:59.731Z,2.60
2022-10-08T01:44:58.896Z,2.63
2022-10-08T01:50:59.452Z,3.20
2022-10-08T01:56:55.156Z,2.50
2022-10-08T02:02:48.736Z,2.20
2022-10-08T02:08:44.266Z,2.70
2022-10-08T02:14:39.806Z,2.20
2022-10-08T02:20:37.143Z,2.40
2022-10-08T02:26:40.701Z,2.50
2022-10-08T02:32:40.018Z,2.70
2022-10-08T02:38:38.152Z,2.30
2022-10-08T02:44:36.659Z,2.50
2022-10-08T02:50:31.724Z,2.97
2022-10-08T02:56:29.455Z,2.30
2022-10-08T03:02:28.943Z,2.87
2022-10-08T03:08:22.860Z,3.00
2022-10-08T03:14:18.585Z,3.40
2022-10-08T03:20:13.727Z,2.50
2022-10-08T03:26:06.858Z,2.30
2022-10-08T03:32:00.102Z,2.97
2022-10-08T03:37:55.376Z,2.67
2022-10-08T03:43:48.601Z,3.13
2022-10-08T03:49:41.889Z,2.30
2022-10-08T03:55:38.355Z,2.70
2022-10-08T04:01:31.389Z,2.20
2022-10-08T04:07:24.792Z,2.33
2022-10-08T04:13:19.308Z,2.20
2022-10-08T04:19:12.479Z,2.33
2022-10-08T04:25:05.899Z,2.60
2022-10-08T04:31:02.413Z,2.70
2022-10-08T04:36:55.304Z,2.63
2022-10-08T04:42:52.400Z,3.23
2022-10-08T04:48:49.951Z,3.43
2022-10-08T04:54:43.408Z,3.40
2022-10-08T05:00:37.202Z,3.20
2022-10-08T05:06:32.956Z,2.93
2022-10-08T05:12:25.884Z,3.33
2022-10-08T05:18:18.740Z,2.97
2022-10-08T05:24:13.615Z,2.90
2022-10-08T05:30:07.850Z,3.70
2022-10-08T05:36:03.781Z,3.43
2022-10-08T05:41:58.395Z,3.20
2022-10-08T05:47:51.250Z,3.30
2022-10-08T05:53:47.081Z,2.80
2022-10-08T05:59:41.833Z,2.83
2022-10-08T06:05:34.667Z,4.00
2022-10-08T06:11:27.860Z,2.60
2022-10-08T06:17:22.903Z,3.00
2022-10-08T06:23:15.915Z,3.30
2022-10-08T06:29:12.135Z,2.80
2022-10-08T06:35:07.223Z,2.80
2022-10-08T06:41:00.186Z,2.90
2022-10-08T06:46:53.618Z,2.87
2022-10-08T06:52:49.488Z,3.10
2022-10-08T06:58:44.808Z,2.57
2022-10-08T07:04:37.675Z,2.80
2022-10-08T07:10:33.868Z,2.83
2022-10-08T07:16:28.038Z,2.47
2022-10-08T07:22:21.343Z,2.87
2022-10-08T07:28:15.941Z,3.03
2022-10-08T07:34:11.640Z,2.87
2022-10-08T07:40:05.282Z,3.27
2022-10-08T07:45:59.687Z,2.23
2022-10-08T07:51:52.958Z,3.40
2022-10-08T07:57:46.664Z,2.27
2022-10-08T08:03:41.656Z,2.10
2022-10-08T08:09:34.493Z,2.40
2022-10-08T08:15:27.747Z,2.43
2022-10-08T08:21:23.918Z,2.00
2022-10-08T08:27:18.294Z,2.20
2022-10-08T08:33:11.643Z,3.07
2022-10-08T08:39:07.613Z,2.73
2022-10-08T08:45:02.874Z,2.33
2022-10-08T08:50:59.151Z,2.17
2022-10-08T08:56:54.751Z,2.00
2022-10-08T09:02:55.601Z,2.50
2022-10-08T09:08:51.780Z,1.50
2022-10-08T09:14:52.105Z,2.13
2022-10-08T09:20:45.910Z,1.83
2022-10-08T09:26:39.259Z,2.00
2022-10-08T09:32:33.670Z,2.13
2022-10-08T09:38:28.903Z,2.10
2022-10-08T09:44:23.924Z,1.73
2022-10-08T09:50:21.114Z,2.40
2022-10-08T09:56:16.413Z,1.53
2022-10-08T10:02:29.309Z,1.93
2022-10-08T10:08:49.221Z,1.77
2022-10-08T10:14:47.098Z,1.53
2022-10-08T10:20:45.830Z,1.20
2022-10-08T10:26:43.548Z,1.30
2022-10-08T10:32:41.250Z,1.37
2022-10-08T10:38:42.120Z,1.10
2022-10-08T10:44:49.719Z,1.53
2022-10-08T10:50:54.496Z,1.10
2022-10-08T10:56:52.994Z,1.20
2022-10-08T11:02:55.674Z,1.60
2022-10-08T11:08:57.976Z,1.23
2022-10-08T11:15:01.714Z,1.17
2022-10-08T11:21:06.564Z,1.30
2022-10-08T11:27:06.975Z,0.90
2022-10-08T11:33:00.193Z,1.70
2022-10-08T11:39:02.107Z,1.47
2022-10-08T11:44:55.434Z,1.10
2022-10-08T11:50:48.485Z,0.90
2022-10-08T11:56:45.599Z,0.70
2022-10-08T12:02:42.510Z,0.83
2022-10-08T12:08:51.481Z,1.10
2022-10-08T12:14:49.934Z,0.67
2022-10-08T12:20:43.454Z,0.73
2022-10-08T12:26:36.670Z,0.70
2022-10-08T12:32:32.813Z,1.07
2022-10-08T12:38:38.994Z,0.90
2022-10-08T12:44:45.368Z,0.70
2022-10-08T12:50:50.119Z,1.10
2022-10-08T12:56:43.059Z,1.00
2022-10-08T13:02:39.243Z,0.80
2022-10-08T13:08:37.479Z,1.30
2022-10-08T13:14:32.026Z,0.90
2022-10-08T13:20:25.874Z,0.93
2022-10-08T13:26:39.192Z,1.10
2022-10-08T13:32:35.215Z,1.00
2022-10-08T13:38:31.998Z,0.90
2022-10-08T13:44:27.673Z,0.90
2022-10-08T13:50:21.973Z,1.37
2022-10-08T13:56:15.309Z,1.20
2022-10-08T14:02:12.022Z,1.00
2022-10-08T14:08:12.221Z,0.90
2022-10-08T14:14:05.499Z,0.83
2022-10-08T14:20:00.474Z,0.93
2022-10-08T14:25:54.073Z,1.10
2022-10-08T14:31:47.020Z,1.10
2022-10-08T14:37:41.650Z,1.40
2022-10-08T14:43:35.337Z,1.50
2022-10-08T14:49:29.000Z,1.00
2022-10-08T14:55:23.249Z,1.10
2022-10-08T15:01:16.623Z,1.30
2022-10-08T15:07:09.906Z,2.40
2022-10-08T15:13:04.381Z,1.27
2022-10-08T15:18:57.740Z,1.50
2022-10-08T15:24:50.746Z,1.50
2022-10-08T15:30:45.671Z,1.70
2022-10-08T15:36:38.982Z,1.20
2022-10-08T15:42:31.910Z,3.53
2022-10-08T15:48:26.578Z,1.80
2022-10-08T15:54:19.917Z,1.50
2022-10-08T16:00:14.626Z,1.73
2022-10-08T16:06:11.173Z,1.20
2022-10-08T16:12:04.515Z,1.10
2022-10-08T16:17:57.911Z,1.50
2022-10-08T16:23:52.715Z,0.90
2022-10-08T16:29:46.036Z,1.17
2022-10-08T16:35:39.372Z,1.80
2022-10-08T16:41:35.706Z,1.50
2022-10-08T16:47:29.010Z,1.30
2022-10-08T16:53:21.944Z,2.00
2022-10-08T16:59:19.417Z,3.23
2022-10-08T17:05:12.252Z,2.30
2022-10-08T17:11:06.841Z,1.73
2022-10-08T17:17:01.321Z,2.80
2022-10-08T17:22:54.618Z,1.93
2022-10-08T17:28:49.938Z,2.40
2022-10-08T17:34:44.271Z,2.60
2022-10-08T17:40:37.570Z,1.70
2022-10-08T17:46:32.367Z,2.20
2022-10-08T17:52:26.666Z,2.63
2022-10-08T17:58:20.081Z,1.90
2022-10-08T18:04:15.367Z,2.00
2022-10-08T18:10:11.213Z,2.13
2022-10-08T18:16:05.117Z,2.70
2022-10-08T18:21:58.410Z,2.50
2022-10-08T18:27:56.247Z,2.70
2022-10-08T18:33:51.210Z,2.83
2022-10-08T18:39:44.115Z,3.03
2022-10-08T18:45:39.473Z,2.80
2022-10-08T18:51:34.105Z,2.27
2022-10-08T18:57:27.455Z,3.17
2022-10-08T19:03:21.694Z,2.93
2022-10-08T19:09:15.867Z,2.23
2022-10-08T19:15:09.261Z,2.50
2022-10-08T19:21:09.916Z,2.70
2022-10-08T19:27:03.379Z,1.93
2022-10-08T19:32:56.719Z,2.10
2022-10-08T19:38:54.414Z,2.30
2022-10-08T19:44:47.656Z,2.00
2022-10-08T19:50:40.930Z,2.57
2022-10-08T19:56:36.266Z,2.40
2022-10-08T20:02:29.612Z,1.90
2022-10-08T20:08:23.462Z,1.70
2022-10-08T20:14:18.139Z,1.97
2022-10-08T20:20:31.561Z,2.60
2022-10-08T20:26:27.760Z,1.73
2022-10-08T20:32:22.400Z,1.90
2022-10-08T20:38:15.667Z,1.77
2022-10-08T20:44:09.161Z,2.30
2022-10-08T20:50:04.920Z,2.70
2022-10-08T20:55:58.352Z,2.00
2022-10-08T21:01:52.505Z,2.30
2022-10-08T21:07:47.223Z,2.07
2022-10-08T21:13:40.607Z,1.93
2022-10-08T21:19:33.887Z,2.30
2022-10-08T21:25:28.702Z,1.90
2022-10-08T21:31:23.076Z,1.90
2022-10-08T21:37:16.274Z,2.40
2022-10-08T21:43:10.854Z,1.93
2022-10-08T21:49:06.740Z,1.63
2022-10-08T21:55:00.034Z,2.27
2022-10-08T22:00:55.216Z,2.13
2022-10-08T22:06:49.672Z,2.53
2022-10-08T22:12:42.959Z,2.33
2022-10-08T22:18:37.583Z,2.20
2022-10-08T22:24:30.845Z,2.23
2022-10-08T22:30:24.100Z,2.53
2022-10-08T22:36:20.694Z,3.83
2022-10-08T22:42:14.017Z,3.77
2022-10-08T22:48:07.011Z,3.17
2022-10-08T22:54:01.896Z,2.90
2022-10-08T22:59:55.160Z,3.00
2022-10-08T23:05:48.396Z,2.20
2022-10-08T23:11:43.069Z,2.10
2022-10-08T23:17:35.962Z,2.50
2022-10-08T23:23:29.269Z,1.80
2022-10-08T23:29:24.010Z,1.87
2022-10-08T23:35:17.522Z,2.17
2022-10-08T23:41:12.458Z,1.60
2022-10-08T23:47:07.136Z,1.93
2022-10-08T23:53:00.427Z,1.37
2022-10-08T23:58:53.684Z,3.00
